Terminal Aerodrome Forecast
Issued by NWS St Louis, MO

Home | Current Version | Previous Version | Text Only | Print | Product List | Glossary On
Versions: 1 2 3 4 5 6 7 8 9 10 11 12 13 14 15 16 17 18 19 20 21 22 23 24
000
FTUS43 KLSX 030300 AAA
TAFCOU
TAF AMD
KCOU 030337Z 0304/0324 14007KT P6SM OVC040
      TEMPO 0304/0306 6SM -RA
     FM030600 16012KT P6SM VCSH OVC007
     FM031200 19014KT P6SM OVC007
     FM031900 23014G20KT P6SM OVC012=

USA.gov is the U.S. government's official web portal to all federal, state and local government web resources and services.